Time;durP1;ratioP1;P1;durP2;ratioP2;P2;SDS_P1;SDS_P2;PMS_P1;PMS_P2;Temp;Humidity;BMP_temperature;BMP_pressure;BME280_temperature;BME280_humidity;BME280_pressure;Samples;Min_cycle;Max_cycle;Signal;HPM_P1;HPM_P2
2023/10/05 00:01:47;;;;;;;4.53;2.75;;;7.70;99.90;;;;;;4984338;28;20018;-76
2023/10/05 00:04:16;;;;;;;2.83;1.85;;;7.60;99.90;;;;;;5001517;28;20026;-76
2023/10/05 00:06:45;;;;;;;2.45;2.10;;;7.60;99.90;;;;;;5001702;28;20098;-75
2023/10/05 00:09:14;;;;;;;6.30;1.85;;;7.50;99.90;;;;;;5001233;28;20499;-76
2023/10/05 00:11:41;;;;;;;3.25;2.22;;;7.50;99.90;;;;;;4999794;28;20034;-75
2023/10/05 00:14:09;;;;;;;3.17;1.88;;;7.50;99.90;;;;;;5001296;28;20471;-76
2023/10/05 00:16:37;;;;;;;2.58;1.90;;;7.50;99.90;;;;;;5000868;28;20019;-76
2023/10/05 00:19:12;;;;;;;4.55;1.95;;;7.50;99.90;;;;;;4999313;28;20109;-76
2023/10/05 00:21:42;;;;;;;2.63;2.13;;;7.50;99.90;;;;;;4999595;28;20030;-76
2023/10/05 00:24:08;;;;;;;3.75;1.90;;;7.50;99.90;;;;;;4999816;28;20072;-76
2023/10/05 00:26:36;;;;;;;3.67;2.30;;;7.50;99.90;;;;;;4999687;28;20398;-76
2023/10/05 00:31:44;;;;;;;6.68;2.17;;;7.50;99.90;;;;;;5000370;28;20105;-76
2023/10/05 00:34:21;;;;;;;4.32;2.50;;;7.40;99.90;;;;;;4982614;28;20050;-76
2023/10/05 00:36:50;;;;;;;3.58;2.53;;;7.30;99.90;;;;;;4983206;28;20037;-76
2023/10/05 00:39:20;;;;;;;9.73;2.83;;;7.20;99.90;;;;;;4982628;28;20062;-76
2023/10/05 00:42:00;;;;;;;3.50;1.90;;;7.20;99.90;;;;;;5001850;28;20050;-76
2023/10/05 00:44:29;;;;;;;2.13;1.52;;;7.30;99.90;;;;;;5000251;28;20116;-76
2023/10/05 00:46:55;;;;;;;6.28;2.40;;;7.30;99.90;;;;;;5000286;28;20055;-76
2023/10/05 00:49:23;;;;;;;3.60;2.50;;;7.40;99.90;;;;;;5000343;28;20049;-76
2023/10/05 00:52:04;;;;;;;2.88;1.98;;;7.30;99.90;;;;;;5001124;28;20018;-75
2023/10/05 00:54:32;;;;;;;3.20;2.42;;;7.20;99.90;;;;;;4999624;28;20423;-76
2023/10/05 00:57:01;;;;;;;4.88;3.17;;;7.30;99.90;;;;;;4999171;28;20025;-76
2023/10/05 00:59:31;;;;;;;4.80;1.63;;;7.30;99.90;;;;;;4986638;28;20121;-77
2023/10/05 01:05:14;;;;;;;2.03;1.48;;;7.20;99.90;;;;;;4998627;28;20053;-75
2023/10/05 01:14:58;;;;;;;4.28;2.25;;;7.30;99.90;;;;;;4996622;28;20108;-76
2023/10/05 01:17:28;;;;;;;4.60;2.58;;;7.30;99.90;;;;;;4996300;28;20018;-76
2023/10/05 01:19:59;;;;;;;9.40;2.33;;;7.40;99.90;;;;;;4997114;28;20042;-75
2023/10/05 01:22:32;;;;;;;7.97;3.72;;;7.40;99.90;;;;;;4980233;28;20414;-75
2023/10/05 01:25:00;;;;;;;4.50;2.42;;;7.30;99.90;;;;;;4979766;28;20032;-76
2023/10/05 01:27:29;;;;;;;4.70;2.38;;;7.30;99.90;;;;;;4997304;28;20097;-76
2023/10/05 01:29:59;;;;;;;12.00;2.80;;;7.30;99.90;;;;;;4980250;28;20033;-76
2023/10/05 01:32:26;;;;;;;;;;;7.30;99.90;;;;;;4981104;28;20050;-76
2023/10/05 01:34:52;;;;;;;13.77;2.60;;;7.10;99.90;;;;;;4980574;28;20354;-76
2023/10/05 01:37:22;;;;;;;3.67;2.65;;;7.10;99.90;;;;;;4980987;28;20065;-76
2023/10/05 01:39:48;;;;;;;4.85;1.70;;;7.00;99.90;;;;;;4980524;28;20030;-76
2023/10/05 01:42:14;;;;;;;4.40;2.50;;;6.80;99.90;;;;;;4980344;28;20434;-76
2023/10/05 01:44:49;;;;;;;3.60;2.08;;;6.80;99.90;;;;;;4997897;28;20487;-76
2023/10/05 01:47:17;;;;;;;3.17;2.00;;;6.90;99.90;;;;;;4979942;28;20060;-75
2023/10/05 01:49:45;;;;;;;3.10;1.70;;;6.80;99.90;;;;;;4997948;28;20057;-76
2023/10/05 01:52:16;;;;;;;3.50;1.92;;;6.70;99.90;;;;;;4997423;28;20018;-75
2023/10/05 01:54:45;;;;;;;11.45;3.60;;;6.60;99.90;;;;;;4980094;28;20112;-76
2023/10/05 01:57:12;;;;;;;3.80;3.23;;;6.60;99.90;;;;;;4996985;28;20032;-76
2023/10/05 01:59:40;;;;;;;3.50;2.60;;;6.60;99.90;;;;;;4978634;28;20073;-75
2023/10/05 02:02:12;;;;;;;2.35;1.80;;;6.70;99.90;;;;;;4996652;28;20376;-76
2023/10/05 02:04:42;;;;;;;2.28;1.67;;;6.60;99.90;;;;;;4997436;28;20030;-76
2023/10/05 02:07:09;;;;;;;2.33;1.65;;;6.50;99.90;;;;;;4997601;28;20029;-76
2023/10/05 02:09:37;;;;;;;2.50;1.73;;;6.40;99.90;;;;;;4979745;28;20118;-76
2023/10/05 02:12:06;;;;;;;2.45;1.67;;;6.40;99.90;;;;;;4996646;28;20109;-76
2023/10/05 02:14:44;;;;;;;;;;;6.30;99.90;;;;;;4998072;28;20022;-76
2023/10/05 02:17:10;;;;;;;7.72;2.70;;;6.30;99.90;;;;;;4979430;28;19906;-76
2023/10/05 02:19:38;;;;;;;3.20;2.05;;;6.60;99.90;;;;;;4996512;28;20427;-76
2023/10/05 02:22:11;;;;;;;2.40;2.08;;;6.40;99.90;;;;;;4979060;28;20204;-75
2023/10/05 02:24:40;;;;;;;2.92;2.35;;;6.40;99.90;;;;;;4997159;28;20101;-79
2023/10/05 02:27:09;;;;;;;;;;;6.40;99.90;;;;;;4997987;28;20053;-76
2023/10/05 02:29:35;;;;;;;3.73;1.97;;;6.40;99.90;;;;;;4996898;28;20003;-76
2023/10/05 02:34:41;;;;;;;5.82;2.22;;;6.60;99.90;;;;;;4997282;28;20043;-76
2023/10/05 02:37:08;;;;;;;2.42;1.75;;;6.60;99.90;;;;;;4997290;28;20386;-76
2023/10/05 02:39:37;;;;;;;3.08;2.08;;;6.60;99.90;;;;;;4996827;28;20058;-76
2023/10/05 02:42:12;;;;;;;1.85;1.42;;;6.60;99.90;;;;;;4979582;28;20022;-76
2023/10/05 02:44:42;;;;;;;2.30;1.63;;;6.50;99.90;;;;;;4997109;28;20041;-77
2023/10/05 02:47:08;;;;;;;5.25;1.77;;;6.40;99.90;;;;;;4998712;28;20109;-76
2023/10/05 02:49:39;;;;;;;4.63;1.85;;;6.40;99.90;;;;;;4999904;28;20057;-76
2023/10/05 02:52:06;;;;;;;5.32;2.55;;;6.30;99.90;;;;;;4999857;28;20117;-76
2023/10/05 02:54:32;;;;;;;4.53;2.90;;;6.50;99.90;;;;;;4999597;28;20022;-76
2023/10/05 02:56:57;;;;;;;2.53;2.33;;;6.40;99.90;;;;;;4998657;28;20113;-75
2023/10/05 02:59:26;;;;;;;4.15;2.45;;;6.40;99.90;;;;;;4998425;28;20031;-76
2023/10/05 03:01:54;;;;;;;3.58;2.97;;;6.30;99.90;;;;;;4996406;28;20054;-75
2023/10/05 03:04:22;;;;;;;5.57;2.63;;;6.40;99.90;;;;;;4995049;28;20070;-76
2023/10/05 03:06:52;;;;;;;2.70;2.28;;;6.40;99.90;;;;;;4995457;28;20379;-76
2023/10/05 03:09:18;;;;;;;3.03;2.22;;;6.50;99.90;;;;;;4978140;28;20462;-76
2023/10/05 03:11:46;;;;;;;7.35;2.53;;;6.60;99.90;;;;;;4996958;28;20026;-77
2023/10/05 03:14:16;;;;;;;5.93;3.13;;;6.70;99.90;;;;;;4997505;28;20027;-77
2023/10/05 03:16:48;;;;;;;;;;;6.70;99.90;;;;;;4997944;28;20113;-76
2023/10/05 03:19:20;;;;;;;3.05;1.98;;;6.70;99.90;;;;;;4997468;28;19967;-76
2023/10/05 03:21:50;;;;;;;7.85;2.15;;;6.70;99.90;;;;;;4996626;28;20022;-76
2023/10/05 03:24:19;;;;;;;6.60;2.10;;;6.60;99.90;;;;;;4979195;28;20481;-76
2023/10/05 03:26:47;;;;;;;3.42;1.73;;;6.70;99.90;;;;;;4997091;28;20088;-76
2023/10/05 03:29:14;;;;;;;2.03;1.67;;;6.60;99.90;;;;;;4997634;28;20023;-75
2023/10/05 03:32:04;;;;;;;7.60;2.60;;;6.70;99.90;;;;;;4979682;28;20026;-76
2023/10/05 03:34:32;;;;;;;4.53;2.72;;;6.80;99.90;;;;;;4979232;28;20066;-76
2023/10/05 03:37:03;;;;;;;2.90;1.98;;;6.70;99.90;;;;;;4979638;28;20138;-76
2023/10/05 03:39:33;;;;;;;4.68;1.75;;;6.70;99.90;;;;;;4979680;28;20026;-76
2023/10/05 03:41:59;;;;;;;2.30;2.00;;;6.60;99.90;;;;;;5001022;28;20030;-76
2023/10/05 03:44:26;;;;;;;3.42;2.90;;;6.70;99.90;;;;;;5002910;28;20031;-76
2023/10/05 03:46:52;;;;;;;2.70;2.13;;;6.70;99.90;;;;;;4997502;28;20036;-76
2023/10/05 03:49:27;;;;;;;7.70;2.30;;;6.60;99.90;;;;;;4995333;28;20022;-75
2023/10/05 03:51:55;;;;;;;3.50;2.05;;;6.60;99.90;;;;;;4994353;28;20033;-76
2023/10/05 03:54:24;;;;;;;2.33;1.98;;;6.60;99.90;;;;;;4979961;28;20065;-76
2023/10/05 03:57:04;;;;;;;3.58;2.05;;;6.60;99.90;;;;;;4977593;28;20467;-76
2023/10/05 03:59:31;;;;;;;7.13;2.05;;;6.60;99.90;;;;;;4996314;28;20042;-76
2023/10/05 04:01:59;;;;;;;7.78;1.80;;;6.60;99.90;;;;;;4994752;28;20026;-76
2023/10/05 04:04:28;;;;;;;4.75;2.10;;;6.70;99.90;;;;;;4993973;28;20019;-76
2023/10/05 04:06:54;;;;;;;4.50;2.05;;;6.80;99.90;;;;;;4994797;28;20472;-76
2023/10/05 04:09:20;;;;;;;5.38;1.80;;;6.80;99.90;;;;;;4994718;28;20030;-75
2023/10/05 04:11:46;;;;;;;3.38;2.03;;;6.80;99.90;;;;;;4995063;28;20491;-75
2023/10/05 04:14:12;;;;;;;2.40;2.08;;;6.70;99.90;;;;;;4994632;28;20027;-76
2023/10/05 04:16:38;;;;;;;5.13;2.45;;;6.70;99.90;;;;;;4995022;28;20027;-76
2023/10/05 04:19:04;;;;;;;6.80;2.70;;;6.70;99.90;;;;;;4994764;28;20119;-76
2023/10/05 04:21:33;;;;;;;2.33;1.50;;;6.70;99.90;;;;;;4995622;28;20035;-75
2023/10/05 04:23:59;;;;;;;4.68;1.77;;;6.60;99.90;;;;;;4978160;28;20030;-76
2023/10/05 04:26:32;;;;;;;4.95;2.15;;;6.60;99.90;;;;;;4994644;28;20022;-75
2023/10/05 04:29:03;;;;;;;4.18;1.50;;;6.70;99.90;;;;;;4994679;28;20022;-76
2023/10/05 04:31:29;;;;;;;2.42;1.98;;;6.60;99.90;;;;;;4977510;28;20360;-76
2023/10/05 04:33:56;;;;;;;3.60;1.52;;;6.60;99.90;;;;;;4995529;28;20162;-76
2023/10/05 04:36:23;;;;;;;2.47;1.90;;;6.70;99.90;;;;;;4998122;28;20459;-75
2023/10/05 04:38:51;;;;;;;4.05;2.05;;;6.70;99.90;;;;;;4997412;28;20027;-76
2023/10/05 04:41:19;;;;;;;4.22;2.35;;;6.60;99.90;;;;;;4998566;28;20058;-76
2023/10/05 04:43:47;;;;;;;3.67;2.08;;;6.50;99.90;;;;;;4998507;28;20061;-77
2023/10/05 04:46:17;;;;;;;2.08;1.85;;;6.40;99.90;;;;;;4998998;28;20026;-77
2023/10/05 04:48:55;;;;;;;15.30;1.77;;;6.30;99.90;;;;;;4998011;28;20022;-77
2023/10/05 04:51:26;;;;;;;2.85;1.80;;;6.30;99.90;;;;;;4998225;28;20439;-76
2023/10/05 04:53:54;;;;;;;1.90;1.80;;;6.20;99.90;;;;;;4980209;28;20030;-76
2023/10/05 04:56:40;;;;;;;9.38;1.98;;;6.20;99.90;;;;;;4997294;28;20033;-76
2023/10/05 05:07:09;;;;;;;3.20;1.88;;;6.10;99.90;;;;;;4996835;28;20045;-76
2023/10/05 05:09:44;;;;;;;1.75;1.40;;;6.00;99.90;;;;;;4997059;28;20054;-76
2023/10/05 05:12:18;;;;;;;5.22;2.58;;;5.90;99.90;;;;;;4997035;28;20029;-76
2023/10/05 05:14:53;;;;;;;1.83;1.40;;;5.80;99.90;;;;;;4997197;28;20026;-76
2023/10/05 05:17:21;;;;;;;2.35;1.65;;;5.80;99.90;;;;;;4997913;28;20450;-76
2023/10/05 05:19:47;;;;;;;3.50;2.07;;;5.70;99.90;;;;;;4979340;28;20058;-77
2023/10/05 05:22:13;;;;;;;4.97;1.55;;;5.70;99.90;;;;;;5001335;28;20400;-76
2023/10/05 05:24:41;;;;;;;2.60;1.50;;;5.70;99.90;;;;;;4997736;28;20026;-76
2023/10/05 05:29:38;;;;;;;2.38;1.90;;;5.70;99.90;;;;;;4998672;28;20123;-79
2023/10/05 05:32:10;;;;;;;1.98;1.33;;;5.60;99.90;;;;;;4981052;28;20491;-78
2023/10/05 05:34:49;;;;;;;1.50;1.40;;;5.90;99.90;;;;;;5004358;28;20030;-78
2023/10/05 05:37:25;;;;;;;1.75;1.65;;;5.50;99.90;;;;;;4984138;28;20022;-79
2023/10/05 05:39:53;;;;;;;6.85;1.88;;;5.80;99.90;;;;;;4983986;28;20041;-78
2023/10/05 05:42:18;;;;;;;2.50;1.88;;;5.50;99.90;;;;;;4985993;28;20062;-77
2023/10/05 05:44:44;;;;;;;3.50;1.80;;;5.40;99.90;;;;;;4984610;28;20226;-78
2023/10/05 05:47:11;;;;;;;4.78;2.15;;;5.40;99.90;;;;;;4999375;28;20030;-78
2023/10/05 05:49:38;;;;;;;2.92;1.83;;;5.40;99.90;;;;;;4983770;28;20057;-82
2023/10/05 05:52:05;;;;;;;5.57;1.50;;;5.40;99.90;;;;;;4983361;28;20113;-80
2023/10/05 05:54:32;;;;;;;5.18;2.83;;;5.50;99.90;;;;;;4982733;28;20497;-78
2023/10/05 05:56:58;;;;;;;5.72;3.10;;;5.60;99.90;;;;;;4983748;28;20406;-78
2023/10/05 05:59:23;;;;;;;2.22;1.92;;;5.80;99.90;;;;;;4984074;28;20034;-79
2023/10/05 06:01:50;;;;;;;3.22;1.77;;;5.90;99.90;;;;;;4998647;28;20049;-78
2023/10/05 06:04:16;;;;;;;2.00;1.75;;;6.00;99.90;;;;;;4985662;28;20030;-78
2023/10/05 06:06:43;;;;;;;2.40;1.90;;;6.10;99.90;;;;;;4985436;28;20027;-78
2023/10/05 06:09:11;;;;;;;4.13;2.17;;;6.20;99.90;;;;;;5001202;28;20049;-78
2023/10/05 06:11:38;;;;;;;5.85;2.72;;;6.10;99.90;;;;;;4984545;28;20030;-77
2023/10/05 06:14:05;;;;;;;4.32;2.92;;;6.20;99.90;;;;;;4987711;28;20053;-78
2023/10/05 06:16:33;;;;;;;4.78;2.55;;;6.40;99.90;;;;;;4981908;28;20022;-77
2023/10/05 06:19:00;;;;;;;5.55;2.50;;;6.50;99.90;;;;;;5000177;28;20077;-79
2023/10/05 06:21:26;;;;;;;6.53;2.65;;;6.70;99.90;;;;;;4982661;28;20039;-78
2023/10/05 06:23:52;;;;;;;4.00;1.75;;;6.70;99.90;;;;;;4982791;28;20026;-78
2023/10/05 06:26:17;;;;;;;6.20;2.22;;;6.80;99.90;;;;;;5003359;28;20102;-78
2023/10/05 06:28:44;;;;;;;5.72;2.50;;;6.90;99.90;;;;;;4989093;28;20030;-78
2023/10/05 06:31:12;;;;;;;2.95;2.65;;;7.10;99.90;;;;;;4999769;28;20428;-79
2023/10/05 06:33:41;;;;;;;5.10;3.30;;;7.20;99.90;;;;;;4981308;28;20102;-78
2023/10/05 06:36:07;;;;;;;;;;;7.30;99.90;;;;;;4981559;28;20034;-79
2023/10/05 06:38:32;;;;;;;7.65;3.08;;;7.50;99.90;;;;;;4981614;28;19906;-78
2023/10/05 06:40:58;;;;;;;3.45;2.55;;;7.70;99.90;;;;;;4997056;28;20027;-79
2023/10/05 06:43:26;;;;;;;4.50;2.40;;;7.90;99.90;;;;;;4997980;28;20032;-78
2023/10/05 06:45:52;;;;;;;2.13;2.03;;;8.00;99.90;;;;;;4998001;28;20562;-78
2023/10/05 06:48:18;;;;;;;4.18;1.95;;;8.10;99.90;;;;;;4979302;28;20053;-77
2023/10/05 06:50:44;;;;;;;3.30;2.22;;;8.10;99.90;;;;;;4996853;28;20487;-79
2023/10/05 06:53:11;;;;;;;6.03;2.65;;;8.00;99.90;;;;;;4978801;28;20081;-78
2023/10/05 06:55:37;;;;;;;2.95;2.35;;;8.20;99.90;;;;;;4996683;28;20097;-78
2023/10/05 06:58:03;;;;;;;1.73;1.63;;;8.30;99.90;;;;;;4978642;28;20029;-78
2023/10/05 07:00:29;;;;;;;6.72;3.00;;;8.40;99.90;;;;;;4979240;28;20046;-78
2023/10/05 07:02:58;;;;;;;8.38;2.33;;;8.50;99.90;;;;;;4979950;28;20113;-79
2023/10/05 07:05:24;;;;;;;4.93;2.83;;;8.70;99.90;;;;;;4981157;28;20027;-78
2023/10/05 07:07:50;;;;;;;5.43;2.40;;;8.80;99.90;;;;;;4981276;28;20501;-79
2023/10/05 07:10:17;;;;;;;3.05;2.50;;;9.10;99.90;;;;;;4982128;28;20023;-77
2023/10/05 07:12:47;;;;;;;3.85;2.22;;;9.10;99.90;;;;;;4982574;28;20147;-78
2023/10/05 07:15:21;;;;;;;10.40;5.53;;;9.30;99.90;;;;;;4981544;28;20117;-77
2023/10/05 07:17:50;;;;;;;6.35;3.10;;;9.40;99.90;;;;;;4982706;28;20053;-78
2023/10/05 07:20:16;;;;;;;;;;;9.60;99.90;;;;;;4983052;28;20030;-79
2023/10/05 07:22:44;;;;;;;4.28;2.50;;;9.70;99.90;;;;;;5000779;28;19905;-78
2023/10/05 07:25:17;;;;;;;3.20;2.58;;;9.80;99.90;;;;;;4981738;28;20031;-78
2023/10/05 07:27:42;;;;;;;5.43;2.85;;;9.90;99.90;;;;;;5000427;28;20014;-79
2023/10/05 07:30:08;;;;;;;4.72;2.50;;;10.00;99.90;;;;;;4983362;28;20189;-78
2023/10/05 07:32:35;;;;;;;3.33;3.00;;;10.30;99.90;;;;;;4998373;28;20105;-79
2023/10/05 07:35:01;;;;;;;3.38;2.35;;;10.50;99.90;;;;;;4998744;28;20057;-78
2023/10/05 07:37:27;;;;;;;4.55;3.42;;;10.70;99.90;;;;;;5001547;28;20102;-79
2023/10/05 07:39:52;;;;;;;12.18;3.13;;;11.00;99.90;;;;;;4980566;28;20072;-80
2023/10/05 07:42:18;;;;;;;6.93;3.42;;;11.20;99.90;;;;;;4985414;28;20069;-78
2023/10/05 07:44:44;;;;;;;7.93;3.30;;;11.40;99.90;;;;;;4984832;28;20113;-78
2023/10/05 07:47:13;;;;;;;6.65;2.85;;;11.50;99.90;;;;;;4983737;28;20026;-76
2023/10/05 07:49:41;;;;;;;6.60;3.33;;;11.60;99.90;;;;;;4984989;28;20038;-77
2023/10/05 07:52:11;;;;;;;4.38;3.22;;;11.80;99.90;;;;;;4986075;28;20035;-78
2023/10/05 07:54:40;;;;;;;5.95;3.50;;;12.00;99.90;;;;;;4986044;28;20027;-78
2023/10/05 07:57:10;;;;;;;2.63;2.30;;;12.10;99.90;;;;;;5004036;28;20023;-78
2023/10/05 07:59:42;;;;;;;5.18;2.55;;;12.00;99.90;;;;;;4986916;28;20040;-78
2023/10/05 08:02:12;;;;;;;4.93;2.40;;;12.40;99.90;;;;;;5004248;28;20041;-78
2023/10/05 08:04:38;;;;;;;5.47;2.85;;;12.70;99.90;;;;;;4985410;28;20039;-80
2023/10/05 08:07:04;;;;;;;5.07;1.83;;;12.80;99.90;;;;;;4982659;28;20034;-78
2023/10/05 08:09:30;;;;;;;5.50;2.40;;;13.00;99.90;;;;;;4985340;28;20030;-78
2023/10/05 08:11:57;;;;;;;4.25;2.70;;;13.10;99.90;;;;;;4986492;28;20049;-80
2023/10/05 08:14:25;;;;;;;4.63;2.55;;;13.00;99.90;;;;;;4991008;28;20152;-79
2023/10/05 08:16:58;;;;;;;2.70;2.30;;;12.80;99.90;;;;;;5010086;28;20026;-79
2023/10/05 08:19:24;;;;;;;4.22;2.17;;;12.60;99.90;;;;;;4993029;28;20038;-79
2023/10/05 08:21:52;;;;;;;2.70;1.95;;;12.70;99.90;;;;;;4989851;28;20117;-81
2023/10/05 08:24:18;;;;;;;4.28;2.50;;;12.80;99.90;;;;;;4987415;28;20475;-80
2023/10/05 08:26:45;;;;;;;3.92;2.17;;;12.90;99.90;;;;;;5006737;28;20084;-80
2023/10/05 08:29:11;;;;;;;4.88;2.28;;;13.00;99.90;;;;;;4989392;28;20386;-78
2023/10/05 08:31:39;;;;;;;3.53;2.58;;;13.40;99.90;;;;;;5006298;28;20023;-78
2023/10/05 08:34:06;;;;;;;3.10;2.75;;;13.80;99.90;;;;;;5007708;28;20043;-79
2023/10/05 08:36:33;;;;;;;4.60;1.95;;;13.70;99.90;;;;;;5006618;28;20032;-78
2023/10/05 08:39:00;;;;;;;5.93;2.28;;;14.00;99.90;;;;;;5006527;28;20113;-78
2023/10/05 08:41:35;;;;;;;3.05;2.17;;;14.10;99.90;;;;;;5006171;28;20462;-78
2023/10/05 08:44:26;;;;;;;9.75;2.55;;;14.20;99.90;;;;;;5001135;28;20512;-78
2023/10/05 08:46:52;;;;;;;3.10;2.17;;;14.50;99.90;;;;;;4982699;28;20498;-77
2023/10/05 08:49:19;;;;;;;4.05;2.78;;;14.80;99.90;;;;;;5000323;28;20399;-78
2023/10/05 08:51:45;;;;;;;7.20;2.72;;;15.20;99.90;;;;;;4982225;28;20527;-78
2023/10/05 08:54:14;;;;;;;5.65;1.70;;;15.50;99.90;;;;;;4985705;28;20094;-78
2023/10/05 08:56:41;;;;;;;3.67;2.03;;;15.10;99.90;;;;;;5004810;28;20094;-78
2023/10/05 08:59:13;;;;;;;3.42;2.15;;;15.30;99.90;;;;;;4987280;28;20048;-77
2023/10/05 09:01:42;;;;;;;3.83;2.22;;;15.40;99.90;;;;;;5002802;28;20045;-77
2023/10/05 09:06:47;;;;;;;4.13;2.25;;;15.20;99.90;;;;;;5003063;28;20027;-77
2023/10/05 09:09:27;;;;;;;3.97;2.57;;;15.50;99.90;;;;;;4987785;28;20499;-77
2023/10/05 09:11:52;;;;;;;7.53;2.15;;;15.40;99.90;;;;;;5008556;28;20026;-77
2023/10/05 09:14:38;;;;;;;6.10;2.20;;;15.50;99.90;;;;;;4999684;28;20485;-77
2023/10/05 09:17:09;;;;;;;4.00;1.70;;;15.50;99.90;;;;;;4981662;28;20061;-77
2023/10/05 09:19:36;;;;;;;4.28;1.83;;;15.60;99.90;;;;;;4999643;28;20048;-78
2023/10/05 09:22:14;;;;;;;5.60;2.95;;;15.80;99.90;;;;;;4988077;28;20040;-77
2023/10/05 09:24:52;;;;;;;2.67;2.40;;;16.00;99.90;;;;;;5006226;28;20082;-78
2023/10/05 09:27:19;;;;;;;4.38;2.55;;;15.80;99.90;;;;;;4983844;28;20501;-81
2023/10/05 09:29:45;;;;;;;4.45;2.47;;;16.30;99.90;;;;;;4978251;28;20553;-83
2023/10/05 09:32:40;;;;;;;2.15;1.70;;;16.60;99.90;;;;;;4995636;28;20119;-78
2023/10/05 09:35:10;;;;;;;3.28;1.95;;;17.00;99.90;;;;;;4975012;28;20502;-78
2023/10/05 09:37:39;;;;;;;3.22;2.53;;;17.40;99.90;;;;;;4978302;28;20062;-79
2023/10/05 09:40:06;;;;;;;;;;;17.70;99.90;;;;;;4981580;28;20045;-78
2023/10/05 09:42:36;;;;;;;9.82;2.47;;;17.50;99.90;;;;;;4981330;28;19906;-78
2023/10/05 09:45:08;;;;;;;6.90;2.10;;;17.40;99.90;;;;;;4998098;28;20029;-79
2023/10/05 09:47:35;;;;;;;5.20;2.78;;;17.40;99.90;;;;;;4977780;28;20121;-78
2023/10/05 09:50:09;;;;;;;2.65;1.83;;;17.50;99.90;;;;;;4995338;28;20050;-79
2023/10/05 09:52:37;;;;;;;6.63;2.35;;;17.60;99.90;;;;;;4977554;28;20438;-79
2023/10/05 09:55:05;;;;;;;3.33;2.35;;;17.40;99.90;;;;;;4978957;28;20058;-77
2023/10/05 09:57:41;;;;;;;6.32;1.90;;;16.90;99.90;;;;;;4979692;28;20109;-78
2023/10/05 10:00:30;;;;;;;6.22;1.80;;;16.60;99.90;;;;;;4981271;28;20509;-77
2023/10/05 10:02:59;;;;;;;4.10;2.83;;;16.20;99.90;;;;;;4998607;28;20023;-78
2023/10/05 10:05:36;;;;;;;;;;;15.70;99.90;;;;;;4980115;28;20172;-78
2023/10/05 10:08:21;;;;;;;3.53;1.63;;;15.60;99.90;;;;;;4980226;28;20265;-78
2023/10/05 10:11:41;;;;;;;3.85;2.22;;;15.70;99.90;;;;;;4999225;28;20022;-79
2023/10/05 10:13:55;;;;;;;5.15;2.05;;;16.10;99.90;;;;;;4993440;28;20038;-78
2023/10/05 10:16:23;;;;;;;9.73;2.03;;;16.50;99.90;;;;;;4987175;28;20042;-79
2023/10/05 10:18:53;;;;;;;5.07;1.35;;;16.80;99.90;;;;;;4986474;28;20030;-78
2023/10/05 10:21:35;;;;;;;2.95;1.83;;;17.30;99.90;;;;;;4979904;28;20038;-82
2023/10/05 10:24:03;;;;;;;2.88;2.13;;;17.80;99.90;;;;;;4977870;28;20057;-79
2023/10/05 10:26:29;;;;;;;4.32;2.03;;;17.90;99.90;;;;;;4980338;28;20394;-79
2023/10/05 10:31:22;;;;;;;3.22;2.00;;;17.70;99.90;;;;;;4993720;28;20352;-79
2023/10/05 10:33:51;;;;;;;2.63;1.70;;;17.70;99.90;;;;;;4977117;28;20372;-78
2023/10/05 10:36:47;;;;;;;2.67;1.70;;;17.70;99.90;;;;;;4995333;28;20026;-78
2023/10/05 10:42:12;;;;;;;9.23;2.28;;;17.30;99.90;;;;;;4996077;28;20035;-79
2023/10/05 10:47:15;;;;;;;2.15;1.60;;;16.70;99.90;;;;;;5007172;28;20490;-77
2023/10/05 10:49:59;;;;;;;3.58;2.15;;;16.60;99.90;;;;;;4986718;28;20455;-80
2023/10/05 10:52:29;;;;;;;4.47;2.17;;;16.30;99.90;;;;;;4988427;28;20049;-79
2023/10/05 10:54:59;;;;;;;3.63;2.08;;;16.20;99.90;;;;;;5005282;28;20026;-78
2023/10/05 10:57:25;;;;;;;3.58;1.98;;;16.30;99.90;;;;;;5004345;28;20022;-78
2023/10/05 11:00:38;;;;;;;2.70;1.65;;;16.40;99.90;;;;;;4981978;28;20438;-79
2023/10/05 11:02:40;;;;;;;9.55;2.17;;;16.50;99.90;;;;;;5004388;28;20022;-79
2023/10/05 11:05:14;;;;;;;2.88;1.52;;;16.70;99.90;;;;;;4990369;28;20486;-77
2023/10/05 11:07:41;;;;;;;5.18;1.50;;;17.10;99.90;;;;;;5005565;28;20054;-80
2023/10/05 11:10:18;;;;;;;2.58;1.58;;;17.30;99.90;;;;;;4985255;28;20026;-79
2023/10/05 11:12:53;;;;;;;3.97;1.98;;;17.90;99.90;;;;;;5000127;28;20023;-77
2023/10/05 11:15:22;;;;;;;4.68;1.80;;;18.00;99.90;;;;;;4985462;28;20026;-79
2023/10/05 11:17:52;;;;;;;16.48;2.17;;;17.90;99.90;;;;;;4987082;28;20471;-79
2023/10/05 11:20:26;;;;;;;1.95;1.20;;;17.90;99.90;;;;;;4981445;28;20084;-78
2023/10/05 11:22:55;;;;;;;3.30;1.42;;;17.80;99.90;;;;;;4980887;28;20023;-78
2023/10/05 11:26:17;;;;;;;3.47;1.60;;;18.00;99.90;;;;;;4982109;28;20026;-78
2023/10/05 11:28:24;;;;;;;3.30;2.15;;;17.70;99.90;;;;;;5000623;28;20085;-78
2023/10/05 11:30:49;;;;;;;4.93;2.25;;;17.60;99.90;;;;;;4982611;28;20027;-78
2023/10/05 11:33:15;;;;;;;3.80;2.38;;;17.70;99.90;;;;;;5001070;28;20466;-79
2023/10/05 11:35:54;;;;;;;1.88;1.38;;;17.70;99.90;;;;;;4998177;28;20030;-78
2023/10/05 11:38:26;;;;;;;7.93;2.53;;;17.90;99.90;;;;;;4997173;28;20030;-80
2023/10/05 11:40:55;;;;;;;3.58;2.33;;;17.70;99.90;;;;;;5000064;28;20297;-80
2023/10/05 11:43:21;;;;;;;7.55;2.13;;;17.70;99.90;;;;;;5009586;28;20501;-79
2023/10/05 11:48:48;;;;;;;4.70;2.10;;;17.60;99.90;;;;;;5007697;28;20475;-80
2023/10/05 11:51:19;;;;;;;2.78;1.90;;;17.60;99.90;;;;;;4984812;28;20026;-80
2023/10/05 11:53:46;;;;;;;3.72;2.22;;;17.70;99.90;;;;;;4995251;28;20073;-79
2023/10/05 11:56:15;;;;;;;5.07;2.22;;;17.60;99.90;;;;;;4999324;28;20022;-80
2023/10/05 11:58:41;;;;;;;3.40;1.92;;;17.80;99.90;;;;;;4983607;28;20562;-79
2023/10/05 12:01:07;;;;;;;3.80;1.95;;;17.60;99.90;;;;;;5007969;28;20034;-81
2023/10/05 12:03:33;;;;;;;3.83;1.63;;;17.80;99.90;;;;;;4989476;28;20027;-81
2023/10/05 12:06:03;;;;;;;4.28;1.83;;;18.00;99.90;;;;;;4985560;28;20030;-80
2023/10/05 12:08:30;;;;;;;2.17;1.70;;;18.10;99.90;;;;;;4998186;28;20023;-80
2023/10/05 12:11:02;;;;;;;2.35;1.63;;;18.60;99.30;;;;;;4997663;28;20105;-81
2023/10/05 12:13:28;;;;;;;2.13;1.40;;;19.90;98.90;;;;;;4979674;28;20487;-80
2023/10/05 12:15:54;;;;;;;3.47;1.77;;;21.50;95.80;;;;;;4979468;28;20340;-81
2023/10/05 12:18:22;;;;;;;6.10;1.77;;;22.40;94.10;;;;;;4980784;28;20018;-80
2023/10/05 12:20:48;;;;;;;4.43;2.00;;;22.70;93.30;;;;;;5002041;28;20364;-81
2023/10/05 12:23:14;;;;;;;2.03;1.30;;;22.30;91.50;;;;;;4987171;28;20022;-80
2023/10/05 12:25:47;;;;;;;5.20;1.70;;;22.60;91.40;;;;;;5008110;28;20464;-79
2023/10/05 12:28:14;;;;;;;3.22;2.00;;;22.70;91.50;;;;;;4989740;28;20066;-78
2023/10/05 12:30:43;;;;;;;3.28;1.58;;;22.60;90.10;;;;;;4979867;28;20093;-78
2023/10/05 12:33:13;;;;;;;6.72;1.65;;;23.20;89.00;;;;;;4996818;28;20045;-78
2023/10/05 12:35:38;;;;;;;6.90;1.90;;;22.50;87.00;;;;;;4979416;28;20038;-79
2023/10/05 12:38:11;;;;;;;2.92;1.98;;;23.40;87.90;;;;;;4980325;28;20030;-78
2023/10/05 12:40:40;;;;;;;2.83;2.00;;;23.10;84.00;;;;;;4979573;28;20491;-77
2023/10/05 12:43:07;;;;;;;1.80;1.70;;;23.60;85.10;;;;;;4979215;28;20468;-78
2023/10/05 12:45:32;;;;;;;5.00;1.95;;;23.60;82.20;;;;;;4979011;28;20027;-78
2023/10/05 12:47:58;;;;;;;3.17;1.60;;;23.40;81.40;;;;;;4997991;28;20526;-78
2023/10/05 12:50:27;;;;;;;2.25;1.23;;;22.50;83.70;;;;;;4981077;28;20022;-78
2023/10/05 12:52:56;;;;;;;3.13;1.50;;;22.50;83.20;;;;;;5000445;28;20053;-78
2023/10/05 12:55:22;;;;;;;9.52;2.28;;;22.50;83.90;;;;;;4982496;28;20472;-78
2023/10/05 12:57:52;;;;;;;3.63;1.58;;;23.20;81.50;;;;;;4996104;28;20056;-78
2023/10/05 13:00:27;;;;;;;2.67;1.65;;;24.10;80.20;;;;;;4978722;28;20038;-78
2023/10/05 13:03:00;;;;;;;2.17;1.65;;;25.70;76.00;;;;;;4995965;28;20065;-79
2023/10/05 13:05:31;;;;;;;3.38;1.50;;;25.20;74.10;;;;;;4978680;28;20058;-78
2023/10/05 13:08:01;;;;;;;4.30;1.88;;;24.20;74.70;;;;;;4978577;28;20118;-78
2023/10/05 13:10:32;;;;;;;2.33;1.67;;;24.10;76.00;;;;;;4978441;28;20041;-78
2023/10/05 13:13:09;;;;;;;1.75;1.42;;;23.90;75.10;;;;;;4978316;28;20038;-78
2023/10/05 13:15:35;;;;;;;4.10;2.08;;;24.90;74.50;;;;;;4980145;28;20027;-77
2023/10/05 13:18:21;;;;;;;5.90;2.08;;;24.90;72.50;;;;;;4981536;28;20033;-82
2023/10/05 13:20:54;;;;;;;6.97;2.05;;;25.60;72.10;;;;;;4978523;28;20234;-80
2023/10/05 13:23:22;;;;;;;5.05;2.10;;;26.50;68.50;;;;;;4995730;28;20023;-78
2023/10/05 13:25:49;;;;;;;1.65;1.35;;;27.10;69.50;;;;;;4978290;28;20080;-79
2023/10/05 13:28:32;;;;;;;4.35;1.90;;;28.20;66.50;;;;;;4995668;28;20057;-80
2023/10/05 13:30:59;;;;;;;3.63;1.92;;;28.50;64.80;;;;;;4977971;28;20034;-78
2023/10/05 13:33:34;;;;;;;3.83;1.80;;;28.70;63.90;;;;;;4995139;28;20130;-78
2023/10/05 13:36:05;;;;;;;6.93;2.03;;;28.80;64.80;;;;;;4977996;28;20475;-79
2023/10/05 13:38:33;;;;;;;7.32;2.25;;;27.70;61.50;;;;;;4977941;28;20037;-78
2023/10/05 13:41:13;;;;;;;3.65;1.67;;;26.50;65.30;;;;;;4995305;28;20479;-78
2023/10/05 13:43:39;;;;;;;2.60;1.58;;;25.00;67.20;;;;;;4977921;28;20034;-79
2023/10/05 13:46:22;;;;;;;4.65;1.45;;;23.20;67.70;;;;;;4978333;28;20462;-77
2023/10/05 13:48:53;;;;;;;2.60;1.55;;;22.40;69.60;;;;;;4978191;28;20109;-78